Time;durP1;ratioP1;P1;durP2;ratioP2;P2;SDS_P1;SDS_P2;PMS_P1;PMS_P2;Temp;Humidity;BMP_temperature;BMP_pressure;BME280_temperature;BME280_humidity;BME280_pressure;Samples;Min_cycle;Max_cycle;Signal;HPM_P1;HPM_P2
2022/04/05 00:01:29;;;;;;;;;;;;;;;-145.06;0.00;60892.56;4898584;28;20358;-86
2022/04/05 00:04:10;;;;;;;;;;;;;;;-145.06;0.00;60892.56;4893671;28;19916;-87
2022/04/05 00:06:48;;;;;;;;;;;;;;;-145.06;0.00;60892.56;4896035;28;19920;-85
2022/04/05 00:09:27;;;;;;;;;;;;;;;-145.06;0.00;60892.56;4892972;28;19920;-86
2022/04/05 00:12:06;;;;;;;;;;;;;;;-145.06;0.00;60892.56;4897259;28;19916;-86
2022/04/05 00:14:48;;;;;;;;;;;;;;;-145.06;0.00;60892.56;4915685;28;20369;-85
2022/04/05 00:17:27;;;;;;;;;;;;;;;-145.06;0.00;60892.56;4889809;28;19924;-86
2022/04/05 00:20:07;;;;;;;;;;;;;;;-145.06;0.00;60892.56;4889279;28;19956;-86
2022/04/05 00:22:46;;;;;;;;;;;;;;;-145.06;0.00;60892.56;4880621;28;19964;-85
2022/04/05 00:25:25;;;;;;;;;;;;;;;-145.06;0.00;60892.56;4897606;28;20250;-86
2022/04/05 00:28:04;;;;;;;;;;;;;;;-145.06;0.00;60892.56;4904962;28;19924;-86
2022/04/05 00:30:43;;;;;;;;;;;;;;;-145.06;0.00;60892.56;4940460;28;19920;-86
2022/04/05 00:33:22;;;;;;;;;;;;;;;-145.06;0.00;60892.56;4896174;28;19916;-86
2022/04/05 00:36:01;;;;;;;;;;;;;;;-145.06;0.00;60892.56;4900718;28;19920;-86
2022/04/05 00:38:40;;;;;;;;;;;;;;;-145.06;0.00;60892.56;4889357;28;20484;-86
2022/04/05 00:41:19;;;;;;;;;;;;;;;-145.06;0.00;60892.56;4907960;28;19920;-85
2022/04/05 00:43:58;;;;;;;;;;;;;;;-145.06;0.00;60892.56;4894166;28;19963;-86
2022/04/05 00:46:37;;;;;;;;;;;;;;;-145.06;0.00;60892.56;4901409;28;20529;-86
2022/04/05 00:49:17;;;;;;;;;;;;;;;-145.06;0.00;60892.56;4910367;28;19916;-85
2022/04/05 00:51:56;;;;;;;;;;;;;;;-145.06;0.00;60892.56;4893612;28;19944;-85
2022/04/05 00:54:36;;;;;;;;;;;;;;;-145.06;0.00;60892.56;4913424;28;20821;-85
2022/04/05 00:57:16;;;;;;;;;;;;;;;-145.06;0.00;60892.56;4912614;28;19925;-87
2022/04/05 00:59:57;;;;;;;;;;;;;;;-145.06;0.00;60892.56;4896629;28;20365;-85
2022/04/05 01:02:37;;;;;;;;;;;;;;;-145.06;0.00;60892.56;4901331;28;19920;-85
2022/04/05 01:05:19;;;;;;;;;;;;;;;-145.06;0.00;60892.56;4915405;28;20030;-86
2022/04/05 01:07:59;;;;;;;;;;;;;;;-145.06;0.00;60892.56;4931118;28;19916;-86
2022/04/05 01:10:38;;;;;;;;;;;;;;;-145.06;0.00;60892.56;4914390;28;20463;-85
2022/04/05 01:13:18;;;;;;;;;;;;;;;-145.06;0.00;60892.56;4927284;28;19916;-85
2022/04/05 01:15:57;;;;;;;;;;;;;;;-145.06;0.00;60892.56;4895780;28;20413;-85
2022/04/05 01:18:36;;;;;;;;;;;;;;;-145.06;0.00;60892.56;4913891;28;20254;-85
2022/04/05 01:21:16;;;;;;;;;;;;;;;-145.06;0.00;60892.56;4925668;28;19913;-85
2022/04/05 01:24:02;;;;;;;;;;;;;;;-145.06;0.00;60892.56;4920606;28;19940;-85
2022/04/05 01:26:42;;;;;;;;;;;;;;;-145.06;0.00;60892.56;4895089;28;19924;-84
2022/04/05 01:29:22;;;;;;;;;;;;;;;-145.06;0.00;60892.56;4915023;28;19916;-84
2022/04/05 01:32:05;;;;;;;;;;;;;;;-145.06;0.00;60892.56;4901094;28;19916;-84
2022/04/05 01:34:44;;;;;;;;;;;;;;;-145.06;0.00;60892.56;4900726;28;20484;-84
2022/04/05 01:37:23;;;;;;;;;;;;;;;-145.06;0.00;60892.56;4911766;28;19963;-85
2022/04/05 01:40:03;;;;;;;;;;;;;;;-145.06;0.00;60892.56;4900224;28;19912;-84
2022/04/05 01:42:42;;;;;;;;;;;;;;;-145.06;0.00;60892.56;4923118;28;19912;-86
2022/04/05 01:45:21;;;;;;;;;;;;;;;-145.06;0.00;60892.56;4908803;28;19916;-84
2022/04/05 01:48:00;;;;;;;;;;;;;;;-145.06;0.00;60892.56;4904123;28;19916;-84
2022/04/05 01:50:39;;;;;;;;;;;;;;;-145.06;0.00;60892.56;4898714;28;19952;-85
2022/04/05 01:53:18;;;;;;;;;;;;;;;-145.06;0.00;60892.56;4904117;28;19916;-85
2022/04/05 01:55:57;;;;;;;;;;;;;;;-145.06;0.00;60892.56;4918600;28;19920;-85
2022/04/05 01:58:36;;;;;;;;;;;;;;;-145.06;0.00;60892.56;4915170;28;19967;-84
2022/04/05 02:01:15;;;;;;;;;;;;;;;-145.06;0.00;60892.56;4931909;28;19951;-85
2022/04/05 02:03:55;;;;;;;;;;;;;;;-145.06;0.00;60892.56;4894721;28;20361;-84
2022/04/05 02:06:33;;;;;;;;;;;;;;;-145.06;0.00;60892.56;4896760;28;19964;-84
2022/04/05 02:09:14;;;;;;;;;;;;;;;-145.06;0.00;60892.56;4915140;28;19924;-84
2022/04/05 02:11:53;;;;;;;;;;;;;;;-145.06;0.00;60892.56;4918168;28;20354;-85
2022/04/05 02:14:32;;;;;;;;;;;;;;;-145.06;0.00;60892.56;4903394;28;19912;-85
2022/04/05 02:17:11;;;;;;;;;;;;;;;-145.06;0.00;60892.56;4914513;28;19924;-85
2022/04/05 02:19:50;;;;;;;;;;;;;;;-145.06;0.00;60892.56;4905740;28;19952;-85
2022/04/05 02:22:29;;;;;;;;;;;;;;;-145.06;0.00;60892.56;4887737;28;19920;-84
2022/04/05 02:25:08;;;;;;;;;;;;;;;9.22;0.00;60892.56;4901462;28;19912;-84
2022/04/05 02:27:47;;;;;;;;;;;;;;;9.30;0.00;60892.56;4916393;28;19920;-86
2022/04/05 02:30:26;;;;;;;;;;;;;;;9.38;0.00;60892.56;4924242;28;19963;-84
2022/04/05 02:33:05;;;;;;;;;;;;;;;-145.06;0.00;60892.56;4926365;28;19920;-84
2022/04/05 02:35:44;;;;;;;;;;;;;;;9.38;0.00;60892.56;4902316;28;19972;-85
2022/04/05 02:38:23;;;;;;;;;;;;;;;9.37;0.00;60892.56;4886884;28;19955;-85
2022/04/05 02:41:05;;;;;;;;;;;;;;;-145.06;0.00;60892.56;4926603;28;19916;-84
2022/04/05 02:43:44;;;;;;;;;;;;;;;-145.06;0.00;60892.56;4900878;28;20835;-84
2022/04/05 02:46:23;;;;;;;;;;;;;;;-145.06;0.00;60892.56;4896177;28;20522;-86
2022/04/05 02:49:03;;;;;;;;;;;;;;;-145.06;0.00;60892.56;4898216;28;19916;-85
2022/04/05 02:51:42;;;;;;;;;;;;;;;-145.06;0.00;60892.56;4894992;28;19931;-86
2022/04/05 02:54:21;;;;;;;;;;;;;;;-145.06;0.00;60892.56;4900295;28;20366;-85
2022/04/05 02:57:00;;;;;;;;;;;;;;;-145.06;0.00;60892.56;4882455;28;19921;-85
2022/04/05 02:59:39;;;;;;;;;;;;;;;-145.06;0.00;60892.56;4904060;28;19920;-85
2022/04/05 03:02:18;;;;;;;;;;;;;;;-145.06;0.00;60892.56;4905765;28;19912;-85
2022/04/05 03:04:57;;;;;;;;;;;;;;;-145.06;0.00;60892.56;4900587;28;19920;-85
2022/04/05 03:07:37;;;;;;;;;;;;;;;-145.06;0.00;60892.56;4915594;28;19916;-86
2022/04/05 03:10:16;;;;;;;;;;;;;;;-145.06;0.00;60892.56;4894150;28;19924;-85
2022/04/05 03:12:55;;;;;;;;;;;;;;;-145.06;0.00;60892.56;4922937;28;19916;-86
2022/04/05 03:15:34;;;;;;;;;;;;;;;-145.06;0.00;60892.56;4915292;28;20006;-85
2022/04/05 03:18:13;;;;;;;;;;;;;;;-145.06;0.00;60892.56;4914046;28;19916;-85
2022/04/05 03:20:52;;;;;;;;;;;;;;;-145.06;0.00;60892.56;4902068;28;19920;-84
2022/04/05 03:23:31;;;;;;;;;;;;;;;-145.06;0.00;60892.56;4901656;28;19920;-85
2022/04/05 03:26:10;;;;;;;;;;;;;;;-145.06;0.00;60892.56;4890942;28;20283;-85
2022/04/05 03:28:49;;;;;;;;;;;;;;;-145.06;0.00;60892.56;4917404;28;19916;-84
2022/04/05 03:31:28;;;;;;;;;;;;;;;-145.06;0.00;60892.56;4898249;28;19951;-84
2022/04/05 03:34:07;;;;;;;;;;;;;;;-145.06;0.00;60892.56;4897000;28;19920;-85
2022/04/05 03:36:46;;;;;;;;;;;;;;;-145.06;0.00;60892.56;4897456;28;19924;-84
2022/04/05 03:39:25;;;;;;;;;;;;;;;-145.06;0.00;60892.56;4920188;28;19916;-86
2022/04/05 03:42:04;;;;;;;;;;;;;;;-145.06;0.00;60892.56;4912826;28;19924;-85
2022/04/05 03:44:43;;;;;;;;;;;;;;;-145.06;0.00;60892.56;4893858;28;19920;-84
2022/04/05 03:47:23;;;;;;;;;;;;;;;-145.06;0.00;60892.56;4893008;28;20031;-84
2022/04/05 03:50:02;;;;;;;;;;;;;;;-145.06;0.00;60892.56;4918379;28;20238;-85
2022/04/05 03:52:41;;;;;;;;;;;;;;;-145.06;0.00;60892.56;4897129;28;20002;-84
2022/04/05 03:55:20;;;;;;;;;;;;;;;-145.06;0.00;60892.56;4899361;28;19916;-84
2022/04/05 03:57:59;;;;;;;;;;;;;;;-145.06;0.00;60892.56;4909698;28;19943;-85
2022/04/05 04:00:38;;;;;;;;;;;;;;;-145.06;0.00;60892.56;4925456;28;20345;-86
2022/04/05 04:03:17;;;;;;;;;;;;;;;-145.06;0.00;60892.56;4896803;28;19916;-85
2022/04/05 04:05:56;;;;;;;;;;;;;;;-145.06;0.00;60892.56;4899117;28;19913;-86
2022/04/05 04:08:35;;;;;;;;;;;;;;;-145.06;0.00;60892.56;4900171;28;19916;-85
2022/04/05 04:11:14;;;;;;;;;;;;;;;-145.06;0.00;60892.56;4903406;28;19916;-85
2022/04/05 04:13:53;;;;;;;;;;;;;;;-145.06;0.00;60892.56;4892619;28;19916;-86
2022/04/05 04:16:32;;;;;;;;;;;;;;;-145.06;0.00;60892.56;4890705;28;19916;-86
2022/04/05 04:19:11;;;;;;;;;;;;;;;-145.06;0.00;60892.56;4892515;28;19920;-85
2022/04/05 04:21:50;;;;;;;;;;;;;;;-145.06;0.00;60892.56;4915724;28;20361;-86
2022/04/05 04:24:29;;;;;;;;;;;;;;;-145.06;0.00;60892.56;4918393;28;20251;-85
2022/04/05 04:27:11;;;;;;;;;;;;;;;-145.06;0.00;60892.56;4896318;28;19921;-86
2022/04/05 04:29:50;;;;;;;;;;;;;;;-145.06;0.00;60892.56;4920925;28;19951;-86
2022/04/05 04:32:29;;;;;;;;;;;;;;;-145.06;0.00;60892.56;4899484;28;19955;-86
2022/04/05 04:35:08;;;;;;;;;;;;;;;-145.06;0.00;60892.56;4900290;28;20014;-86
2022/04/05 04:37:47;;;;;;;;;;;;;;;-145.06;0.00;60892.56;4911103;28;19916;-87
2022/04/05 04:40:26;;;;;;;;;;;;;;;-145.06;0.00;60892.56;4928781;28;20115;-86
2022/04/05 04:43:05;;;;;;;;;;;;;;;-145.06;0.00;60892.56;4938912;28;19928;-86
2022/04/05 04:45:45;;;;;;;;;;;;;;;-145.06;0.00;60892.56;4923149;28;19928;-86
2022/04/05 04:48:23;;;;;;;;;;;;;;;-145.06;0.00;60892.56;4911068;28;20338;-85
2022/04/05 04:51:02;;;;;;;;;;;;;;;-145.06;0.00;60892.56;4914700;28;19920;-88
2022/04/05 04:53:41;;;;;;;;;;;;;;;-145.06;0.00;60892.56;4896005;28;19941;-86
2022/04/05 04:56:20;;;;;;;;;;;;;;;10.68;0.00;60892.56;4918438;28;19920;-86
2022/04/05 04:58:59;;;;;;;;;;;;;;;10.68;0.00;60892.56;4914840;28;19912;-85
2022/04/05 05:01:38;;;;;;;;;;;;;;;10.68;0.00;60892.56;4920956;28;19951;-86
2022/04/05 05:04:17;;;;;;;;;;;;;;;10.68;0.00;60892.56;4914446;28;20266;-85
2022/04/05 05:06:56;;;;;;;;;;;;;;;10.68;0.00;60892.56;4894271;28;20353;-86
2022/04/05 05:09:35;;;;;;;;;;;;;;;10.68;0.00;60892.56;4895386;28;19924;-86
2022/04/05 05:12:14;;;;;;;;;;;;;;;10.68;0.00;60892.56;4929102;28;20014;-86
2022/04/05 05:14:53;;;;;;;;;;;;;;;10.68;0.00;60892.56;4930211;28;20266;-87
2022/04/05 05:17:32;;;;;;;;;;;;;;;10.68;0.00;60892.56;4932032;28;20007;-86
2022/04/05 05:20:12;;;;;;;;;;;;;;;10.68;0.00;60892.56;4898083;28;19920;-86
2022/04/05 05:22:51;;;;;;;;;;;;;;;10.42;0.00;60892.56;4894594;28;19920;-87
2022/04/05 05:25:30;;;;;;;;;;;;;;;10.68;0.00;60892.56;4890814;28;19916;-87
2022/04/05 05:28:09;;;;;;;;;;;;;;;10.68;0.00;60892.56;4917399;28;19920;-86
2022/04/05 05:30:48;;;;;;;;;;;;;;;10.68;0.00;60892.56;4915086;28;19912;-87
2022/04/05 05:33:27;;;;;;;;;;;;;;;10.68;0.00;60892.56;4912191;28;19959;-86
2022/04/05 05:36:06;;;;;;;;;;;;;;;10.68;0.00;60892.56;4917760;28;19920;-87
2022/04/05 05:38:45;;;;;;;;;;;;;;;10.68;0.00;60892.56;4901883;28;21019;-86
2022/04/05 05:41:24;;;;;;;;;;;;;;;10.68;0.00;60892.56;4897712;28;19920;-87
2022/04/05 05:44:03;;;;;;;;;;;;;;;10.48;0.00;60892.56;4897899;28;19920;-86
2022/04/05 05:46:42;;;;;;;;;;;;;;;10.68;0.00;60892.56;4903120;28;20481;-86
2022/04/05 05:49:21;;;;;;;;;;;;;;;10.68;0.00;60892.56;4922170;28;19912;-86
2022/04/05 05:52:00;;;;;;;;;;;;;;;10.68;0.00;60892.56;4893975;28;20250;-87
2022/04/05 05:54:39;;;;;;;;;;;;;;;10.68;0.00;60892.56;4919660;28;20507;-87
2022/04/05 05:57:18;;;;;;;;;;;;;;;-145.06;0.00;60892.56;4903818;28;19916;-87
2022/04/05 05:59:57;;;;;;;;;;;;;;;10.68;0.00;60892.56;4901010;28;20361;-87
2022/04/05 06:02:40;;;;;;;;;;;;;;;10.68;0.00;60892.56;4902074;28;19959;-88
2022/04/05 06:05:19;;;;;;;;;;;;;;;10.68;0.00;60892.56;4901352;28;20271;-86
2022/04/05 06:07:58;;;;;;;;;;;;;;;10.68;0.00;60892.56;4900762;28;20373;-86
2022/04/05 06:10:37;;;;;;;;;;;;;;;10.68;0.00;60892.56;4905082;28;19916;-87
2022/04/05 06:13:16;;;;;;;;;;;;;;;10.68;0.00;60892.56;4892568;28;19920;-87
2022/04/05 06:15:55;;;;;;;;;;;;;;;10.68;0.00;60892.56;4918546;28;19928;-87
2022/04/05 06:18:34;;;;;;;;;;;;;;;10.68;0.00;60892.56;4900476;28;19959;-87
2022/04/05 06:21:16;;;;;;;;;;;;;;;10.68;0.00;60892.56;4901653;28;19912;-87
2022/04/05 06:23:55;;;;;;;;;;;;;;;10.68;0.00;60892.56;4903625;28;19916;-87
2022/04/05 06:26:34;;;;;;;;;;;;;;;10.68;0.00;60892.56;4909860;28;19967;-87
2022/04/05 06:29:13;;;;;;;;;;;;;;;10.68;0.00;60892.56;4901174;28;20243;-86
2022/04/05 06:31:52;;;;;;;;;;;;;;;-145.06;0.00;60892.56;4901545;28;19912;-87
2022/04/05 06:34:31;;;;;;;;;;;;;;;-145.06;0.00;60892.56;4892359;28;19960;-86
2022/04/05 06:37:10;;;;;;;;;;;;;;;-145.06;0.00;60892.56;4892333;28;19921;-86
2022/04/05 06:39:49;;;;;;;;;;;;;;;-145.06;0.00;60892.56;4923965;28;20350;-86
2022/04/05 06:42:29;;;;;;;;;;;;;;;-145.06;0.00;60892.56;4923887;28;19912;-87
2022/04/05 06:45:12;;;;;;;;;;;;;;;-145.06;0.00;60892.56;4901728;28;19912;-86
2022/04/05 06:47:51;;;;;;;;;;;;;;;-145.06;0.00;60892.56;4896224;28;19952;-86
2022/04/05 06:50:30;;;;;;;;;;;;;;;-145.06;0.00;60892.56;4912178;28;20479;-86
2022/04/05 06:53:09;;;;;;;;;;;;;;;-145.06;0.00;60892.56;4897407;28;19912;-86
2022/04/05 06:55:48;;;;;;;;;;;;;;;-145.06;0.00;60892.56;4903043;28;19959;-86
2022/04/05 06:58:27;;;;;;;;;;;;;;;-145.06;0.00;60892.56;4901886;28;20306;-85
2022/04/05 07:01:06;;;;;;;;;;;;;;;-145.06;0.00;60892.56;4900689;28;19912;-87
2022/04/05 07:03:45;;;;;;;;;;;;;;;-145.06;0.00;60892.56;4919715;28;20285;-86
2022/04/05 07:06:24;;;;;;;;;;;;;;;-145.06;0.00;60892.56;4901079;28;19920;-86
2022/04/05 07:09:05;;;;;;;;;;;;;;;-145.06;0.00;60892.56;4900181;28;19915;-87
2022/04/05 07:11:43;;;;;;;;;;;;;;;-145.06;0.00;60892.56;4916296;28;19916;-87
2022/04/05 07:14:22;;;;;;;;;;;;;;;-145.06;0.00;60892.56;4916359;28;19912;-87
2022/04/05 07:17:01;;;;;;;;;;;;;;;-145.06;0.00;60892.56;4923109;28;19920;-86
2022/04/05 07:19:40;;;;;;;;;;;;;;;-145.06;0.00;60892.56;4892581;28;19943;-86
2022/04/05 07:22:19;;;;;;;;;;;;;;;-145.06;0.00;60892.56;4881438;28;19917;-86
2022/04/05 07:24:58;;;;;;;;;;;;;;;-145.06;0.00;60892.56;4885989;28;20239;-86
2022/04/05 07:27:37;;;;;;;;;;;;;;;-145.06;0.00;60892.56;4921552;28;20361;-87
2022/04/05 07:30:16;;;;;;;;;;;;;;;-145.06;0.00;60892.56;4899839;28;19912;-86
2022/04/05 07:32:55;;;;;;;;;;;;;;;-145.06;0.00;60892.56;4920824;28;19916;-87
2022/04/05 07:35:34;;;;;;;;;;;;;;;-145.06;0.00;60892.56;4915142;28;19959;-85
2022/04/05 07:38:13;;;;;;;;;;;;;;;-145.06;0.00;60892.56;4916440;28;19912;-87
2022/04/05 07:40:53;;;;;;;;;;;;;;;-145.06;0.00;60892.56;4931420;28;20353;-87
2022/04/05 07:43:33;;;;;;;;;;;;;;;-145.06;0.00;60892.56;4915209;28;20362;-87
2022/04/05 07:46:12;;;;;;;;;;;;;;;-145.06;0.00;60892.56;4900872;28;19912;-87
2022/04/05 07:48:51;;;;;;;;;;;;;;;-145.06;0.00;60892.56;4880946;28;19912;-87
2022/04/05 07:51:30;;;;;;;;;;;;;;;-145.06;0.00;60892.56;4919351;28;20563;-87
2022/04/05 07:54:09;;;;;;;;;;;;;;;-145.06;0.00;60892.56;4919878;28;19967;-86
2022/04/05 07:56:48;;;;;;;;;;;;;;;-145.06;0.00;60892.56;4910684;28;19920;-87
2022/04/05 07:59:27;;;;;;;;;;;;;;;-145.06;0.00;60892.56;4902975;28;19916;-87
2022/04/05 08:02:06;;;;;;;;;;;;;;;-145.06;0.00;60892.56;4881102;28;19999;-87
2022/04/05 08:04:45;;;;;;;;;;;;;;;-145.06;0.00;60892.56;4903272;28;19920;-87
2022/04/05 08:07:24;;;;;;;;;;;;;;;-145.06;0.00;60892.56;4900367;28;19916;-86
2022/04/05 08:10:03;;;;;;;;;;;;;;;-145.06;0.00;60892.56;4899588;28;19916;-87
2022/04/05 08:12:44;;;;;;;;;;;;;;;-145.06;0.00;60892.56;4923616;28;19924;-87
2022/04/05 08:15:23;;;;;;;;;;;;;;;-145.06;0.00;60892.56;4901874;28;19912;-87
2022/04/05 08:18:02;;;;;;;;;;;;;;;-145.06;0.00;60892.56;4942692;28;19908;-87
2022/04/05 08:20:41;;;;;;;;;;;;;;;-145.06;0.00;60892.56;4921015;28;19924;-87
2022/04/05 08:23:20;;;;;;;;;;;;;;;-145.06;0.00;60892.56;4923011;28;19912;-86
2022/04/05 08:26:00;;;;;;;;;;;;;;;-145.06;0.00;60892.56;4900757;28;19912;-87
2022/04/05 08:28:39;;;;;;;;;;;;;;;-145.06;0.00;60892.56;4900475;28;20314;-86
2022/04/05 08:31:18;;;;;;;;;;;;;;;-145.06;0.00;60892.56;4894386;28;19920;-86
2022/04/05 08:33:57;;;;;;;;;;;;;;;-145.06;0.00;60892.56;4910185;28;20467;-87
2022/04/05 08:36:36;;;;;;;;;;;;;;;-145.06;0.00;60892.56;4891734;28;20378;-87
2022/04/05 08:39:17;;;;;;;;;;;;;;;-145.06;0.00;60892.56;4898775;28;20368;-86
2022/04/05 08:41:57;;;;;;;;;;;;;;;-145.06;0.00;60892.56;4924256;28;19916;-86
2022/04/05 08:44:36;;;;;;;;;;;;;;;-145.06;0.00;60892.56;4916833;28;19924;-87
2022/04/05 08:47:17;;;;;;;;;;;;;;;-145.06;0.00;60892.56;4921514;28;19915;-87
2022/04/05 08:49:56;;;;;;;;;;;;;;;-145.06;0.00;60892.56;4910512;28;19912;-86
2022/04/05 08:52:36;;;;;;;;;;;;;;;-145.06;0.00;60892.56;4904644;28;20015;-87
2022/04/05 08:55:15;;;;;;;;;;;;;;;-145.06;0.00;60892.56;4899354;28;19920;-87
2022/04/05 08:57:55;;;;;;;;;;;;;;;-145.06;0.00;60892.56;4921519;28;19924;-86
2022/04/05 09:00:34;;;;;;;;;;;;;;;-145.06;0.00;60892.56;4898796;28;19963;-87
2022/04/05 09:03:13;;;;;;;;;;;;;;;-145.06;0.00;60892.56;4921296;28;19942;-86
2022/04/05 09:05:52;;;;;;;;;;;;;;;-145.06;0.00;60892.56;4894426;28;19916;-86
2022/04/05 09:08:31;;;;;;;;;;;;;;;-145.06;0.00;60892.56;4899135;28;19916;-86
2022/04/05 09:11:12;;;;;;;;;;;;;;;-145.06;0.00;60892.56;4898215;28;19912;-87
2022/04/05 09:14:02;;;;;;;;;;;;;;;-145.06;0.00;60892.56;4924505;28;20247;-87
2022/04/05 09:16:41;;;;;;;;;;;;;;;-145.06;0.00;60892.56;4880027;28;20287;-87
2022/04/05 09:19:20;;;;;;;;;;;;;;;-145.06;0.00;60892.56;4898299;28;19947;-87
2022/04/05 09:22:00;;;;;;;;;;;;;;;-145.06;0.00;60892.56;4923747;28;19951;-87
2022/04/05 09:24:40;;;;;;;;;;;;;;;-145.06;0.00;60892.56;4909567;28;19912;-88
2022/04/05 09:27:20;;;;;;;;;;;;;;;-145.06;0.00;60892.56;4895467;28;19955;-87
2022/04/05 09:29:59;;;;;;;;;;;;;;;-145.06;0.00;60892.56;4892589;28;19912;-86
2022/04/05 09:32:40;;;;;;;;;;;;;;;-145.06;0.00;60892.56;4905761;28;19912;-86
2022/04/05 09:35:20;;;;;;;;;;;;;;;-145.06;0.00;60892.56;4906372;28;19916;-86
2022/04/05 09:38:09;;;;;;;;;;;;;;;-145.06;0.00;60892.56;4924964;28;20010;-87
2022/04/05 09:40:52;;;;;;;;;;;;;;;-145.06;0.00;60892.56;4914420;28;19916;-87
2022/04/05 09:43:31;;;;;;;;;;;;;;;-145.06;0.00;60892.56;4902324;28;19912;-88
2022/04/05 09:46:10;;;;;;;;;;;;;;;-145.06;0.00;60892.56;4899516;28;19916;-87
2022/04/05 09:49:08;;;;;;;;;;;;;;;-145.06;0.00;60892.56;4898177;28;20732;-87
2022/04/05 09:51:47;;;;;;;;;;;;;;;-145.06;0.00;60892.56;4890688;28;19920;-87
2022/04/05 09:54:29;;;;;;;;;;;;;;;-145.06;0.00;60892.56;4921465;28;19916;-87
2022/04/05 09:57:08;;;;;;;;;;;;;;;-145.06;0.00;60892.56;4924191;28;20365;-86
2022/04/05 09:59:47;;;;;;;;;;;;;;;-145.06;0.00;60892.56;4902455;28;20385;-87
2022/04/05 10:02:27;;;;;;;;;;;;;;;-145.06;0.00;60892.56;4901486;28;20007;-87
2022/04/05 10:05:09;;;;;;;;;;;;;;;-145.06;0.00;60892.56;4907351;28;19917;-87
2022/04/05 10:07:48;;;;;;;;;;;;;;;-145.06;0.00;60892.56;4902869;28;19999;-88
2022/04/05 10:10:27;;;;;;;;;;;;;;;-145.06;0.00;60892.56;4903615;28;20014;-87
2022/04/05 10:13:05;;;;;;;;;;;;;;;-145.06;0.00;60892.56;4927654;28;20783;-86
2022/04/05 10:15:47;;;;;;;;;;;;;;;-145.06;0.00;60892.56;4912568;28;20275;-87
2022/04/05 10:18:31;;;;;;;;;;;;;;;-145.06;0.00;60892.56;4907795;28;20563;-88
2022/04/05 10:21:11;;;;;;;;;;;;;;;-145.06;0.00;60892.56;4901088;28;19916;-86
2022/04/05 10:23:52;;;;;;;;;;;;;;;-145.06;0.00;60892.56;4891160;28;20003;-87
2022/04/05 10:26:32;;;;;;;;;;;;;;;-145.06;0.00;60892.56;4916941;28;19991;-86
2022/04/05 10:29:17;;;;;;;;;;;;;;;-145.06;0.00;60892.56;4917528;28;20433;-86
2022/04/05 10:32:14;;;;;;;;;;;;;;;-145.06;0.00;60892.56;4917196;28;19917;-86
2022/04/05 10:34:56;;;;;;;;;;;;;;;-145.06;0.00;60892.56;4904516;28;19916;-86
2022/04/05 10:37:36;;;;;;;;;;;;;;;-145.06;0.00;60892.56;4896405;28;19928;-86
2022/04/05 10:40:17;;;;;;;;;;;;;;;-145.06;0.00;60892.56;4897785;28;19920;-86
2022/04/05 10:42:57;;;;;;;;;;;;;;;-145.06;0.00;60892.56;4929597;28;19912;-87
2022/04/05 10:45:41;;;;;;;;;;;;;;;11.98;0.00;60892.56;4896462;28;19916;-86
2022/04/05 10:48:26;;;;;;;;;;;;;;;11.98;0.00;60892.56;4904589;28;19912;-86
2022/04/05 10:51:05;;;;;;;;;;;;;;;11.98;0.00;60892.56;4901296;28;19920;-87
2022/04/05 10:56:42;;;;;;;;;;;;;;;11.98;0.00;60892.56;4903856;28;19916;-87
2022/04/05 10:59:21;;;;;;;;;;;;;;;11.98;0.00;60892.56;4902281;28;19912;-87
2022/04/05 11:02:20;;;;;;;;;;;;;;;11.98;0.00;60892.56;4922964;28;19912;-86
2022/04/05 11:05:04;;;;;;;;;;;;;;;11.98;0.00;60892.56;4908138;28;19920;-87
2022/04/05 11:07:52;;;;;;;;;;;;;;;-145.06;0.00;60892.56;4922211;28;19947;-86
2022/04/05 11:10:37;;;;;;;;;;;;;;;-145.06;0.00;60892.56;4916001;28;20247;-87
2022/04/05 11:13:16;;;;;;;;;;;;;;;-145.06;0.00;60892.56;4909385;28;20424;-85
2022/04/05 11:15:56;;;;;;;;;;;;;;;-145.06;0.00;60892.56;4942790;28;19958;-87
2022/04/05 11:18:36;;;;;;;;;;;;;;;-145.06;0.00;60892.56;4936530;28;20274;-89
2022/04/05 11:21:15;;;;;;;;;;;;;;;-145.06;0.00;60892.56;4888372;28;19920;-87
2022/04/05 11:23:54;;;;;;;;;;;;;;;12.31;0.00;60892.56;4887391;28;19920;-87
2022/04/05 11:26:35;;;;;;;;;;;;;;;-145.06;0.00;60892.56;4900711;28;19912;-88
2022/04/05 11:29:19;;;;;;;;;;;;;;;-145.06;0.00;60892.56;4916455;28;20075;-87
2022/04/05 11:32:08;;;;;;;;;;;;;;;-145.06;0.00;60892.56;4920063;28;19916;-86
2022/04/05 11:34:48;;;;;;;;;;;;;;;-145.06;0.00;60892.56;4916499;28;19920;-87
2022/04/05 11:37:32;;;;;;;;;;;;;;;-145.06;0.00;60892.56;4901546;28;19920;-88
2022/04/05 11:40:11;;;;;;;;;;;;;;;-145.06;0.00;60892.56;4899294;28;19916;-87
2022/04/05 11:42:50;;;;;;;;;;;;;;;-145.06;0.00;60892.56;4930978;28;20366;-87
2022/04/05 11:45:30;;;;;;;;;;;;;;;13.01;0.00;60892.56;4935157;28;19912;-87
2022/04/05 11:48:13;;;;;;;;;;;;;;;13.08;0.00;60892.56;4920637;28;19912;-87
2022/04/05 11:50:53;;;;;;;;;;;;;;;-145.06;0.00;60892.56;4905498;28;20322;-88
2022/04/05 11:53:31;;;;;;;;;;;;;;;-145.06;0.00;60892.56;4901462;28;19912;-87
2022/04/05 11:56:24;;;;;;;;;;;;;;;-145.06;0.00;60892.56;4913836;28;20022;-88
2022/04/05 11:59:05;;;;;;;;;;;;;;;-145.06;0.00;60892.56;4910754;28;19924;-89
2022/04/05 12:01:49;;;;;;;;;;;;;;;-145.06;0.00;60892.56;4901578;28;20267;-88
2022/04/05 12:04:30;;;;;;;;;;;;;;;-145.06;0.00;60892.56;4902213;28;19916;-89
2022/04/05 12:07:09;;;;;;;;;;;;;;;-145.06;0.00;60892.56;4900618;28;19912;-89
2022/04/05 12:09:48;;;;;;;;;;;;;;;-145.06;0.00;60892.56;4895069;28;20489;-88
2022/04/05 12:12:27;;;;;;;;;;;;;;;-145.06;0.00;60892.56;4908334;28;19916;-88
2022/04/05 12:15:13;;;;;;;;;;;;;;;-145.06;0.00;60892.56;4907361;28;19912;-89
2022/04/05 12:18:12;;;;;;;;;;;;;;;-145.06;0.00;60892.56;4915568;28;19920;-88
2022/04/05 12:21:00;;;;;;;;;;;;;;;-145.06;0.00;60892.56;4914469;28;19920;-87
2022/04/05 12:23:40;;;;;;;;;;;;;;;-145.06;0.00;60892.56;4899823;28;19916;-89
2022/04/05 12:26:23;;;;;;;;;;;;;;;-145.06;0.00;60892.56;4913153;28;20238;-89
2022/04/05 12:29:03;;;;;;;;;;;;;;;-145.06;0.00;60892.56;4921997;28;20557;-89
2022/04/05 12:31:41;;;;;;;;;;;;;;;-145.06;0.00;60892.56;4913931;28;19951;-88
2022/04/05 12:34:20;;;;;;;;;;;;;;;-145.06;0.00;60892.56;4898452;28;19916;-89
2022/04/05 12:37:02;;;;;;;;;;;;;;;-145.06;0.00;60892.56;4908727;28;20266;-88
2022/04/05 12:39:50;;;;;;;;;;;;;;;-145.06;0.00;60892.56;4894407;28;20259;-88
2022/04/05 12:42:39;;;;;;;;;;;;;;;-145.06;0.00;60892.56;4900920;28;20487;-88
2022/04/05 12:45:25;;;;;;;;;;;;;;;-145.06;0.00;60892.56;4901491;28;20365;-89
2022/04/05 12:48:11;;;;;;;;;;;;;;;-145.06;0.00;60892.56;4904811;28;20071;-89
2022/04/05 12:50:51;;;;;;;;;;;;;;;13.18;0.00;60892.56;4935789;28;19964;-89
2022/04/05 12:53:34;;;;;;;;;;;;;;;13.15;0.00;60892.56;4889379;28;19916;-88
2022/04/05 12:56:15;;;;;;;;;;;;;;;13.12;0.00;60892.56;4895782;28;20389;-88
2022/04/05 12:59:03;;;;;;;;;;;;;;;13.03;0.00;60892.56;4897587;28;19920;-88
2022/04/05 13:01:42;;;;;;;;;;;;;;;12.99;0.00;60892.56;4899770;28;19916;-88
2022/04/05 13:04:21;;;;;;;;;;;;;;;-145.06;0.00;60892.56;4900024;28;19916;-89
2022/04/05 13:07:03;;;;;;;;;;;;;;;-145.06;0.00;60892.56;4913633;28;19916;-88
2022/04/05 13:09:42;;;;;;;;;;;;;;;-145.06;0.00;60892.56;4888181;28;19920;-87
2022/04/05 13:12:21;;;;;;;;;;;;;;;-145.06;0.00;60892.56;4909961;28;19917;-86
2022/04/05 13:15:09;;;;;;;;;;;;;;;-145.06;0.00;60892.56;4898645;28;19916;-86
2022/04/05 13:17:47;;;;;;;;;;;;;;;-145.06;0.00;60892.56;4908465;28;20325;-85
2022/04/05 13:20:27;;;;;;;;;;;;;;;-145.06;0.00;60892.56;4905669;28;19921;-87
2022/04/05 13:23:06;;;;;;;;;;;;;;;-145.06;0.00;60892.56;4903156;28;19917;-87
2022/04/05 13:25:45;;;;;;;;;;;;;;;-145.06;0.00;60892.56;4891311;28;19920;-87
2022/04/05 13:28:32;;;;;;;;;;;;;;;-145.06;0.00;60892.56;4893985;28;19963;-87
2022/04/05 13:31:13;;;;;;;;;;;;;;;-145.06;0.00;60892.56;4899292;28;20354;-87
2022/04/05 13:33:52;;;;;;;;;;;;;;;-145.06;0.00;60892.56;4897470;28;20006;-86
2022/04/05 13:36:31;;;;;;;;;;;;;;;-145.06;0.00;60892.56;4913343;28;20266;-85
2022/04/05 13:39:11;;;;;;;;;;;;;;;-145.06;0.00;60892.56;4892843;28;19920;-86
2022/04/05 13:41:52;;;;;;;;;;;;;;;-145.06;0.00;60892.56;4889641;28;19916;-85
2022/04/05 13:44:31;;;;;;;;;;;;;;;-145.06;0.00;60892.56;4906725;28;19947;-86
2022/04/05 13:47:10;;;;;;;;;;;;;;;-145.06;0.00;60892.56;4898767;28;19936;-85
2022/04/05 13:49:49;;;;;;;;;;;;;;;-145.06;0.00;60892.56;4902119;28;19963;-86